Terminal Aerodrome Forecast
Issued by NWS

Home | Current Version | Previous Version | Text Only | Print | Product List | Glossary On
Versions: 1 2 3 4 5 6 7 8 9 10 11 12 13 14 15 16 17 18 19 20 21 22 23 24 25 26 27
531
FTUS43 KGRR 102340
TAFMKG
TAF
KMKG 102340Z 1100/1124 34010KT P6SM -SHSN OVC025
     FM111200 16006KT 4SM -SN OVC018
     FM111400 18010KT 1 1/2SM -SN OVC012
     FM112100 20007KT 3/4SM -SN OVC010=

USA.gov is the U.S. government's official web portal to all federal, state and local government web resources and services.